CheckWX is a tool to help pilots better visualize weather data.  It is not intended as a substitute for an official pre-flight weather briefing.

06:38:35 UTC

SBIL METAR
Bahia - Jorge Amado Airport
Ilhéus, Brazil
Current

2 hours ago

SBIL 180500Z 14003KT 9999 SCT018 26/24 Q1012
Observed
Nov-18 @ 05:00 UTC
Wind
  • 140° at 3 KTS
Visibility
10,000+ meters
Flight Rules
VFR
Cloud Levels
  • Scattered at 1,800' AGL
Temperature
26°C / 79°F
Dewpoint
24°C / 75°F
Humidity
89%
Altimeter
29.88" Hg
Pressure
1011.92 hPa
Previous

3 hours ago

SBIL 180400Z 18004KT 9999 SCT018 27/23 Q1012
Observed
Nov-18 @ 04:00 UTC
Wind
  • 180° at 4 KTS
Visibility
10,000+ meters
Flight Rules
VFR
Cloud Levels
  • Scattered at 1,800' AGL
Temperature
27°C / 81°F
Dewpoint
23°C / 73°F
Heat Index
30°C / 86°F
Humidity
79%
Altimeter
29.88" Hg
Pressure
1011.92 hPa
Previous

4 hours ago

SBIL 180300Z 10007KT 9999 FEW025 27/23 Q1012
Observed
Nov-18 @ 03:00 UTC
Wind
  • 100° at 7 KTS
Visibility
10,000+ meters
Flight Rules
VFR
Cloud Levels
  • Few at 2,500' AGL
Temperature
27°C / 81°F
Dewpoint
23°C / 73°F
Heat Index
30°C / 86°F
Humidity
79%
Altimeter
29.88" Hg
Pressure
1011.92 hPa